createdAt,value
2017-06-11T00:01:19.603Z,20.70
2017-06-11T00:03:47.111Z,20.70
2017-06-11T00:06:14.652Z,20.70
2017-06-11T00:08:42.170Z,20.70
2017-06-11T00:11:09.674Z,20.70
2017-06-11T00:13:37.968Z,20.60
2017-06-11T00:16:05.511Z,20.60
2017-06-11T00:18:33.060Z,20.60
2017-06-11T00:21:00.560Z,20.50
2017-06-11T00:23:28.112Z,20.50
2017-06-11T00:25:55.650Z,20.50
2017-06-11T00:28:23.942Z,20.30
2017-06-11T00:30:51.461Z,20.30
2017-06-11T00:33:18.989Z,20.30
2017-06-11T00:35:46.515Z,20.20
2017-06-11T00:38:14.062Z,20.10
2017-06-11T00:40:41.580Z,20.10
2017-06-11T00:43:09.237Z,20.10
2017-06-11T00:45:36.787Z,20.10
2017-06-11T00:48:04.299Z,20.10
2017-06-11T00:50:31.839Z,20.00
2017-06-11T00:52:59.370Z,20.00
2017-06-11T00:55:26.896Z,19.90
2017-06-11T00:57:54.452Z,19.90
2017-06-11T01:00:22.003Z,19.80
2017-06-11T01:02:49.529Z,19.70
2017-06-11T01:05:17.051Z,19.70
2017-06-11T01:07:44.602Z,19.70
2017-06-11T01:10:12.111Z,19.70
2017-06-11T01:12:39.610Z,19.60
2017-06-11T01:15:07.944Z,19.70
2017-06-11T01:17:35.586Z,19.70
2017-06-11T01:20:03.112Z,19.70
2017-06-11T01:22:30.622Z,19.70
2017-06-11T01:24:58.141Z,19.70
2017-06-11T01:27:25.643Z,19.70
2017-06-11T01:29:53.151Z,19.80
2017-06-11T01:32:20.675Z,19.80
2017-06-11T01:34:48.201Z,19.80
2017-06-11T01:37:15.750Z,19.80
2017-06-11T01:39:43.279Z,19.80
2017-06-11T01:42:11.555Z,19.90
2017-06-11T01:44:39.066Z,19.80
2017-06-11T01:47:06.592Z,19.90
2017-06-11T01:49:34.106Z,19.80
2017-06-11T01:52:01.632Z,19.80
2017-06-11T01:54:29.130Z,19.80
2017-06-11T01:56:56.671Z,19.80
2017-06-11T01:59:24.167Z,19.70
2017-06-11T02:01:52.446Z,19.60
2017-06-11T02:04:20.749Z,19.60
2017-06-11T02:06:48.274Z,19.60
2017-06-11T02:09:15.782Z,19.60
2017-06-11T02:11:43.314Z,19.50
2017-06-11T02:14:10.846Z,19.50
2017-06-11T02:16:38.376Z,19.50
2017-06-11T02:19:05.911Z,19.50
2017-06-11T02:21:33.408Z,19.40
2017-06-11T02:24:00.932Z,19.30
2017-06-11T02:26:28.491Z,19.30
2017-06-11T02:28:56.013Z,19.30
2017-06-11T02:31:23.531Z,19.30
2017-06-11T02:33:51.048Z,19.30
2017-06-11T02:36:18.550Z,19.30
2017-06-11T02:38:46.070Z,19.30
2017-06-11T02:41:13.609Z,19.30
2017-06-11T02:43:41.881Z,19.30
2017-06-11T02:46:10.168Z,19.30
2017-06-11T02:48:38.529Z,19.40
2017-06-11T02:51:06.032Z,19.30
2017-06-11T02:53:33.534Z,19.40
2017-06-11T02:56:01.056Z,19.40
2017-06-11T02:58:28.552Z,19.30
2017-06-11T03:00:56.119Z,19.10
2017-06-11T03:03:23.679Z,19.10
2017-06-11T03:05:51.177Z,19.00
2017-06-11T03:08:18.844Z,19.00
2017-06-11T03:10:46.362Z,19.10
2017-06-11T03:13:13.921Z,19.20
2017-06-11T03:15:41.437Z,19.20
2017-06-11T03:18:08.963Z,19.20
2017-06-11T03:20:37.278Z,19.00
2017-06-11T03:23:04.910Z,18.90
2017-06-11T03:25:32.412Z,18.80
2017-06-11T03:28:00.131Z,18.80
2017-06-11T03:30:27.687Z,18.70
2017-06-11T03:32:55.316Z,18.60
2017-06-11T03:35:22.835Z,18.60
2017-06-11T03:37:50.357Z,18.60
2017-06-11T03:40:17.925Z,18.50
2017-06-11T03:42:46.212Z,18.50
2017-06-11T03:45:13.745Z,18.50
2017-06-11T03:47:41.244Z,18.40
2017-06-11T03:50:08.779Z,18.40
2017-06-11T03:52:37.050Z,18.80
2017-06-11T03:55:05.306Z,18.90
2017-06-11T03:57:32.822Z,18.90
2017-06-11T04:00:00.362Z,18.90
2017-06-11T04:02:28.175Z,19.00
2017-06-11T04:04:55.670Z,19.10
2017-06-11T04:07:23.187Z,19.10
2017-06-11T04:09:50.706Z,19.10
2017-06-11T04:12:18.218Z,19.10
2017-06-11T04:14:45.727Z,19.10
2017-06-11T04:17:13.243Z,19.00
2017-06-11T04:19:40.741Z,19.00
2017-06-11T04:22:08.263Z,19.00
2017-06-11T04:24:35.828Z,19.10
2017-06-11T04:27:03.344Z,19.20
2017-06-11T04:29:30.864Z,19.20
2017-06-11T04:31:59.311Z,19.20
2017-06-11T04:34:26.808Z,19.20
2017-06-11T04:36:54.327Z,19.20
2017-06-11T04:39:21.840Z,19.20
2017-06-11T04:41:49.352Z,19.10
2017-06-11T04:44:16.852Z,19.10
2017-06-11T04:46:44.371Z,19.10
2017-06-11T04:49:11.893Z,19.10
2017-06-11T04:51:39.437Z,19.30
2017-06-11T04:54:06.946Z,19.30
2017-06-11T04:56:34.556Z,19.20
2017-06-11T04:59:02.071Z,19.30
2017-06-11T05:01:29.559Z,19.40
2017-06-11T05:03:57.837Z,19.50
2017-06-11T05:06:26.179Z,19.70
2017-06-11T05:08:53.680Z,19.70
2017-06-11T05:11:21.223Z,20.20
2017-06-11T05:13:48.776Z,20.70
2017-06-11T05:16:16.263Z,21.00
2017-06-11T05:18:43.761Z,21.00
2017-06-11T05:21:11.264Z,20.90
2017-06-11T05:23:39.677Z,20.80
2017-06-11T05:26:07.183Z,20.70
2017-06-11T05:28:34.699Z,20.70
2017-06-11T05:31:02.262Z,20.70
2017-06-11T05:33:29.775Z,20.70
2017-06-11T05:35:57.289Z,20.60
2017-06-11T05:38:24.806Z,20.60
2017-06-11T05:40:52.328Z,20.60
2017-06-11T05:43:19.815Z,20.70
2017-06-11T05:45:48.109Z,20.60
2017-06-11T05:48:15.619Z,20.60
2017-06-11T05:50:43.149Z,20.60
2017-06-11T05:53:10.658Z,20.50
2017-06-11T05:55:38.168Z,20.60
2017-06-11T05:58:05.792Z,20.60
2017-06-11T06:00:34.076Z,20.80
2017-06-11T06:03:02.347Z,20.90
2017-06-11T06:05:30.635Z,20.80
2017-06-11T06:07:58.939Z,20.80
2017-06-11T06:10:26.443Z,20.80
2017-06-11T06:12:53.955Z,20.90
2017-06-11T06:15:21.446Z,20.90
2017-06-11T06:17:48.949Z,21.00
2017-06-11T06:20:16.471Z,21.10
2017-06-11T06:22:43.955Z,21.10
2017-06-11T06:25:11.477Z,21.20
2017-06-11T06:27:38.974Z,21.30
2017-06-11T06:30:07.244Z,21.40
2017-06-11T06:32:35.534Z,21.40
2017-06-11T06:35:03.813Z,21.40
2017-06-11T06:37:31.323Z,21.40
2017-06-11T06:39:58.823Z,21.40
2017-06-11T06:42:26.358Z,21.40
2017-06-11T06:44:53.858Z,21.50
2017-06-11T06:47:21.354Z,21.70
2017-06-11T06:49:48.863Z,21.70
2017-06-11T06:52:16.363Z,21.80
2017-06-11T06:54:43.850Z,21.90
2017-06-11T06:57:11.375Z,21.80
2017-06-11T06:59:38.889Z,21.90
2017-06-11T07:02:07.548Z,21.90
2017-06-11T07:04:35.089Z,22.00
2017-06-11T07:07:02.621Z,22.10
2017-06-11T07:09:30.139Z,22.10
2017-06-11T07:11:57.638Z,22.20
2017-06-11T07:14:25.149Z,22.30
2017-06-11T07:16:52.654Z,22.30
2017-06-11T07:19:20.422Z,22.20
2017-06-11T07:21:47.987Z,22.20
2017-06-11T07:24:15.491Z,22.20
2017-06-11T07:26:42.993Z,22.40
2017-06-11T07:29:10.502Z,22.50
2017-06-11T07:31:38.012Z,22.50
2017-06-11T07:34:05.531Z,22.40
2017-06-11T07:36:33.029Z,22.50
2017-06-11T07:39:00.522Z,22.50
2017-06-11T07:41:28.125Z,22.60
2017-06-11T07:43:55.755Z,22.60
2017-06-11T07:46:23.250Z,22.70
2017-06-11T07:48:50.761Z,22.80
2017-06-11T07:51:18.586Z,22.90
2017-06-11T07:53:46.086Z,22.80
2017-06-11T07:56:13.592Z,22.80
2017-06-11T07:58:41.874Z,22.90
2017-06-11T08:01:11.402Z,22.90
2017-06-11T08:03:38.906Z,22.90
2017-06-11T08:06:06.643Z,23.10
2017-06-11T08:08:34.155Z,23.10
2017-06-11T08:11:01.647Z,23.20
2017-06-11T08:13:29.875Z,23.30
2017-06-11T08:15:57.496Z,23.20
2017-06-11T08:18:25.367Z,23.30
2017-06-11T08:20:53.031Z,23.40
2017-06-11T08:23:20.542Z,23.50
2017-06-11T08:25:48.209Z,23.50
2017-06-11T08:28:15.744Z,23.50
2017-06-11T08:30:43.273Z,23.50
2017-06-11T08:33:10.819Z,23.60
2017-06-11T08:35:38.403Z,23.60
2017-06-11T08:38:05.955Z,23.70
2017-06-11T08:40:33.479Z,23.70
2017-06-11T08:43:00.981Z,23.60
2017-06-11T08:45:28.482Z,23.50
2017-06-11T08:47:57.696Z,23.60
2017-06-11T08:50:25.703Z,23.60
2017-06-11T08:52:53.219Z,23.60
2017-06-11T08:55:20.758Z,23.70
2017-06-11T08:57:49.057Z,23.80
2017-06-11T09:00:17.383Z,23.80
2017-06-11T09:02:47.646Z,23.80
2017-06-11T09:05:16.026Z,23.90
2017-06-11T09:07:43.852Z,24.00
2017-06-11T09:10:11.484Z,24.10
2017-06-11T09:12:39.038Z,24.20
2017-06-11T09:15:06.642Z,24.20
2017-06-11T09:17:34.142Z,24.30
2017-06-11T09:20:01.672Z,24.30
2017-06-11T09:22:29.223Z,24.40
2017-06-11T09:24:56.798Z,24.50
2017-06-11T09:27:24.297Z,24.50
2017-06-11T09:29:51.807Z,24.50
2017-06-11T09:32:19.468Z,24.50
2017-06-11T09:34:46.981Z,24.60
2017-06-11T09:37:14.484Z,24.60
2017-06-11T09:39:42.012Z,24.70
2017-06-11T09:42:09.577Z,24.90
2017-06-11T09:44:37.242Z,25.00
2017-06-11T09:47:04.757Z,25.10
2017-06-11T09:49:33.382Z,25.20
2017-06-11T09:52:00.914Z,25.20
2017-06-11T09:54:29.196Z,25.40
2017-06-11T09:56:57.563Z,25.40
2017-06-11T09:59:25.132Z,25.40
2017-06-11T10:01:53.394Z,25.60
2017-06-11T10:04:21.731Z,25.70
2017-06-11T10:06:49.238Z,25.70
2017-06-11T10:09:16.760Z,25.70
2017-06-11T10:11:44.320Z,25.80
2017-06-11T10:14:11.974Z,25.90
2017-06-11T10:16:39.483Z,26.00
2017-06-11T10:19:06.987Z,26.20
2017-06-11T10:21:34.504Z,26.30
2017-06-11T10:24:04.429Z,26.20
2017-06-11T10:26:31.934Z,26.30
2017-06-11T10:28:59.440Z,26.20
2017-06-11T10:31:26.976Z,26.30
2017-06-11T10:33:54.471Z,26.40
2017-06-11T10:36:21.987Z,26.60
2017-06-11T10:38:49.483Z,26.90
2017-06-11T10:41:17.020Z,27.60
2017-06-11T10:43:45.322Z,30.20
2017-06-11T10:46:12.848Z,30.10
2017-06-11T10:48:40.359Z,31.70
2017-06-11T10:51:07.887Z,33.20
2017-06-11T10:53:36.210Z,34.10
2017-06-11T10:56:03.735Z,34.30
2017-06-11T10:58:31.258Z,34.10
2017-06-11T11:00:58.774Z,34.80
2017-06-11T11:03:26.547Z,36.00
2017-06-11T11:05:54.053Z,36.20
2017-06-11T11:08:22.349Z,37.40
2017-06-11T11:10:49.870Z,37.40
2017-06-11T11:13:17.370Z,37.70
2017-06-11T11:15:44.876Z,37.80
2017-06-11T11:18:12.381Z,38.20
2017-06-11T11:20:40.668Z,39.70
2017-06-11T11:23:08.182Z,39.60
2017-06-11T11:25:35.819Z,39.90
2017-06-11T11:28:03.330Z,40.00
2017-06-11T11:30:30.854Z,39.80
2017-06-11T11:32:58.369Z,39.50
2017-06-11T11:35:25.887Z,39.50
2017-06-11T11:37:53.435Z,40.20
2017-06-11T11:40:20.975Z,40.70
2017-06-11T11:42:48.494Z,40.40
2017-06-11T11:45:16.002Z,40.70
2017-06-11T11:47:43.503Z,41.00
2017-06-11T11:50:10.995Z,41.60
2017-06-11T11:52:38.527Z,40.00
2017-06-11T11:55:06.062Z,39.20
2017-06-11T11:57:33.559Z,38.20
2017-06-11T12:00:01.066Z,37.90
2017-06-11T12:02:28.577Z,37.50
2017-06-11T12:04:56.089Z,37.40
2017-06-11T12:07:23.592Z,38.60
2017-06-11T12:09:51.090Z,39.90
2017-06-11T12:12:18.632Z,40.70
2017-06-11T12:14:46.137Z,40.50
2017-06-11T12:17:13.640Z,40.00
2017-06-11T12:19:41.161Z,40.40
2017-06-11T12:22:08.874Z,41.30
2017-06-11T12:24:36.422Z,41.10
2017-06-11T12:27:03.948Z,41.20
2017-06-11T12:29:31.494Z,40.80
2017-06-11T12:31:59.031Z,40.90
2017-06-11T12:34:26.558Z,40.00
2017-06-11T12:36:54.058Z,38.90
2017-06-11T12:39:21.598Z,38.40
2017-06-11T12:41:49.106Z,37.90
2017-06-11T12:44:16.673Z,36.90
2017-06-11T12:46:44.253Z,35.90
2017-06-11T12:49:11.847Z,35.20
2017-06-11T12:51:39.429Z,34.50
2017-06-11T12:54:07.013Z,33.60
2017-06-11T12:56:34.534Z,32.90
2017-06-11T12:59:02.090Z,32.80
2017-06-11T13:01:29.670Z,32.60
2017-06-11T13:03:57.201Z,32.60
2017-06-11T13:06:25.159Z,32.80
2017-06-11T13:08:52.716Z,33.10
2017-06-11T13:11:20.242Z,33.00
2017-06-11T13:13:47.786Z,32.70
2017-06-11T13:16:15.365Z,32.40
2017-06-11T13:18:43.203Z,32.10
2017-06-11T13:21:10.767Z,31.80
2017-06-11T13:23:38.309Z,31.80
2017-06-11T13:26:05.865Z,31.90
2017-06-11T13:28:33.430Z,32.00
2017-06-11T13:31:00.976Z,31.60
2017-06-11T13:33:28.611Z,31.30
2017-06-11T13:35:56.149Z,31.40
2017-06-11T13:38:23.676Z,31.10
2017-06-11T13:40:51.183Z,31.00
2017-06-11T13:43:18.698Z,30.80
2017-06-11T13:45:46.221Z,30.60
2017-06-11T13:48:13.757Z,30.60
2017-06-11T13:50:41.267Z,30.40
2017-06-11T13:53:09.116Z,30.60
2017-06-11T13:55:36.647Z,30.70
2017-06-11T13:58:04.194Z,30.70
2017-06-11T14:00:31.738Z,30.80
2017-06-11T14:02:59.268Z,30.80
2017-06-11T14:05:26.799Z,30.60
2017-06-11T14:07:54.353Z,30.50
2017-06-11T14:10:21.870Z,30.40
2017-06-11T14:12:49.372Z,30.50
2017-06-11T14:15:16.887Z,30.70
2017-06-11T14:17:44.407Z,30.90
2017-06-11T14:20:11.907Z,31.30
2017-06-11T14:22:39.427Z,31.50
2017-06-11T14:25:06.942Z,31.50
2017-06-11T14:27:38.110Z,31.30
2017-06-11T14:30:05.616Z,31.20
2017-06-11T14:32:33.147Z,31.10
2017-06-11T14:35:00.652Z,31.10
2017-06-11T14:37:28.161Z,31.10
2017-06-11T14:39:55.818Z,30.90
2017-06-11T14:42:23.344Z,31.10
2017-06-11T14:44:50.892Z,31.30
2017-06-11T14:47:18.419Z,31.30
2017-06-11T14:49:47.665Z,31.40
2017-06-11T14:52:15.239Z,31.60
2017-06-11T14:54:42.754Z,31.70
2017-06-11T14:57:10.785Z,31.90
2017-06-11T14:59:38.321Z,32.00
2017-06-11T15:02:06.604Z,32.00
2017-06-11T15:04:35.084Z,32.10
2017-06-11T15:07:03.371Z,32.40
2017-06-11T15:09:30.891Z,32.40
2017-06-11T15:11:58.423Z,32.80
2017-06-11T15:14:25.932Z,33.20
2017-06-11T15:16:54.261Z,34.70
2017-06-11T15:19:21.770Z,34.70
2017-06-11T15:21:49.283Z,35.20
2017-06-11T15:24:16.791Z,35.50
2017-06-11T15:26:44.335Z,35.70
2017-06-11T15:29:11.855Z,36.20
2017-06-11T15:31:39.468Z,36.60
2017-06-11T15:34:06.971Z,36.30
2017-06-11T15:36:34.485Z,35.40
2017-06-11T15:39:02.775Z,33.90
2017-06-11T15:41:30.385Z,33.90
2017-06-11T15:43:57.881Z,33.50
2017-06-11T15:46:26.166Z,33.00
2017-06-11T15:48:54.434Z,32.50
2017-06-11T15:51:22.721Z,32.20
2017-06-11T15:53:50.987Z,32.10
2017-06-11T15:56:19.275Z,32.00
2017-06-11T15:58:47.589Z,32.70
2017-06-11T16:01:15.095Z,32.70
2017-06-11T16:03:42.614Z,32.60
2017-06-11T16:06:10.246Z,32.20
2017-06-11T16:08:37.746Z,32.10
2017-06-11T16:11:05.274Z,31.80
2017-06-11T16:13:32.792Z,31.80
2017-06-11T16:16:00.538Z,31.50
2017-06-11T16:18:28.040Z,31.40
2017-06-11T16:20:55.571Z,31.30
2017-06-11T16:23:23.090Z,31.20
2017-06-11T16:25:50.608Z,31.20
2017-06-11T16:28:18.891Z,30.90
2017-06-11T16:30:47.179Z,30.80
2017-06-11T16:33:14.700Z,30.80
2017-06-11T16:35:42.230Z,30.70
2017-06-11T16:38:09.752Z,30.50
2017-06-11T16:40:38.045Z,30.20
2017-06-11T16:43:05.553Z,30.20
2017-06-11T16:45:33.059Z,30.00
2017-06-11T16:48:00.575Z,29.90
2017-06-11T16:50:28.091Z,29.80
2017-06-11T16:52:55.601Z,29.70
2017-06-11T16:55:23.148Z,29.50
2017-06-11T16:57:50.682Z,29.40
2017-06-11T17:00:18.207Z,29.40
2017-06-11T17:02:45.832Z,29.40
2017-06-11T17:05:13.383Z,29.40
2017-06-11T17:07:40.976Z,29.30
2017-06-11T17:10:08.502Z,29.20
2017-06-11T17:12:36.032Z,29.10
2017-06-11T17:15:03.539Z,29.10
2017-06-11T17:17:31.184Z,29.00
2017-06-11T17:19:58.678Z,28.90
2017-06-11T17:22:26.174Z,28.90
2017-06-11T17:24:53.698Z,28.80
2017-06-11T17:27:22.042Z,28.70
2017-06-11T17:29:49.535Z,28.70
2017-06-11T17:32:17.046Z,28.90
2017-06-11T17:34:44.635Z,28.80
2017-06-11T17:37:12.206Z,28.90
2017-06-11T17:39:40.468Z,28.80
2017-06-11T17:42:08.021Z,28.70
2017-06-11T17:44:35.598Z,28.60
2017-06-11T17:47:03.275Z,28.40
2017-06-11T17:49:31.533Z,28.40
2017-06-11T17:51:59.920Z,28.30
2017-06-11T17:54:27.436Z,28.30
2017-06-11T17:56:54.976Z,28.30
2017-06-11T17:59:22.519Z,28.30
2017-06-11T18:01:50.049Z,28.20
2017-06-11T18:04:17.558Z,28.30
2017-06-11T18:06:45.113Z,28.20
2017-06-11T18:09:12.636Z,28.20
2017-06-11T18:11:40.174Z,28.20
2017-06-11T18:14:07.701Z,28.10
2017-06-11T18:16:35.637Z,28.00
2017-06-11T18:19:03.187Z,28.00
2017-06-11T18:21:30.697Z,27.90
2017-06-11T18:23:58.261Z,27.80
2017-06-11T18:26:25.785Z,27.80
2017-06-11T18:28:53.342Z,27.70
2017-06-11T18:31:21.630Z,27.70
2017-06-11T18:33:49.221Z,27.60
2017-06-11T18:36:16.869Z,27.60
2017-06-11T18:38:44.697Z,27.50
2017-06-11T18:41:12.245Z,27.50
2017-06-11T18:43:39.760Z,27.50
2017-06-11T18:46:07.318Z,27.50
2017-06-11T18:48:34.880Z,27.50
2017-06-11T18:51:02.419Z,27.50
2017-06-11T18:53:29.944Z,27.60
2017-06-11T18:55:57.508Z,27.60
2017-06-11T18:58:25.066Z,27.60
2017-06-11T19:00:52.613Z,27.60
2017-06-11T19:03:20.115Z,27.60
2017-06-11T19:05:47.717Z,27.50
2017-06-11T19:08:15.269Z,27.30
2017-06-11T19:10:43.796Z,27.30
2017-06-11T19:13:11.364Z,27.30
2017-06-11T19:15:38.923Z,27.30
2017-06-11T19:18:07.306Z,27.10
2017-06-11T19:20:34.837Z,27.10
2017-06-11T19:23:02.367Z,27.10
2017-06-11T19:25:30.164Z,27.10
2017-06-11T19:27:58.494Z,26.90
2017-06-11T19:30:26.040Z,26.90
2017-06-11T19:32:53.558Z,26.90
2017-06-11T19:35:21.899Z,26.90
2017-06-11T19:37:49.451Z,26.80
2017-06-11T19:40:17.076Z,26.90
2017-06-11T19:42:44.817Z,26.80
2017-06-11T19:45:12.360Z,26.90
2017-06-11T19:47:39.944Z,26.80
2017-06-11T19:50:08.596Z,26.70
2017-06-11T19:52:36.314Z,26.80
2017-06-11T19:55:04.639Z,26.70
2017-06-11T19:57:32.230Z,26.70
2017-06-11T19:59:59.726Z,26.60
2017-06-11T20:02:27.270Z,26.70
2017-06-11T20:04:54.804Z,26.70
2017-06-11T20:07:22.369Z,26.70
2017-06-11T20:09:49.909Z,26.70
2017-06-11T20:12:17.432Z,26.60
2017-06-11T20:14:45.091Z,26.60
2017-06-11T20:17:12.928Z,26.70
2017-06-11T20:19:41.353Z,26.70
2017-06-11T20:22:08.932Z,26.60
2017-06-11T20:24:36.505Z,26.60
2017-06-11T20:27:04.099Z,26.60
2017-06-11T20:29:31.746Z,26.60
2017-06-11T20:31:59.341Z,26.50
2017-06-11T20:34:27.872Z,26.40
2017-06-11T20:36:55.401Z,26.30
2017-06-11T20:39:22.899Z,26.20
2017-06-11T20:41:50.933Z,26.10
2017-06-11T20:44:19.401Z,26.10
2017-06-11T20:46:46.925Z,25.90
2017-06-11T20:49:14.434Z,25.80
2017-06-11T20:51:42.479Z,25.70
2017-06-11T20:54:10.770Z,25.80
2017-06-11T20:56:38.289Z,25.80
2017-06-11T20:59:05.775Z,25.70
2017-06-11T21:01:33.447Z,25.70
2017-06-11T21:04:00.986Z,25.70
2017-06-11T21:06:29.282Z,25.20
2017-06-11T21:08:56.862Z,25.20
2017-06-11T21:11:24.413Z,25.10
2017-06-11T21:13:51.961Z,25.00
2017-06-11T21:16:19.543Z,24.80
2017-06-11T21:18:47.044Z,24.60
2017-06-11T21:21:14.581Z,24.50
2017-06-11T21:23:42.090Z,24.30
2017-06-11T21:26:10.358Z,24.00
2017-06-11T21:28:38.651Z,24.00
2017-06-11T21:31:06.930Z,23.90
2017-06-11T21:33:34.443Z,23.90
2017-06-11T21:36:01.989Z,23.90
2017-06-11T21:38:29.497Z,23.90
2017-06-11T21:40:57.755Z,23.80
2017-06-11T21:43:25.275Z,23.80
2017-06-11T21:45:52.791Z,23.70
2017-06-11T21:48:20.326Z,23.70
2017-06-11T21:50:47.830Z,23.80
2017-06-11T21:53:15.342Z,23.70
2017-06-11T21:55:42.889Z,23.70
2017-06-11T21:58:10.423Z,23.70
2017-06-11T22:00:37.953Z,23.70
2017-06-11T22:03:05.490Z,23.70
2017-06-11T22:05:32.998Z,23.70
2017-06-11T22:08:00.490Z,23.80
2017-06-11T22:10:28.008Z,23.70
2017-06-11T22:12:55.515Z,23.70
2017-06-11T22:15:23.034Z,23.80
2017-06-11T22:17:50.583Z,23.80
2017-06-11T22:20:18.103Z,23.80
2017-06-11T22:22:45.708Z,23.80
2017-06-11T22:25:13.251Z,23.70
2017-06-11T22:27:40.887Z,23.70
2017-06-11T22:30:08.586Z,23.70
2017-06-11T22:32:36.106Z,23.70
2017-06-11T22:35:03.622Z,23.70
2017-06-11T22:37:31.131Z,23.70
2017-06-11T22:39:58.810Z,23.80
2017-06-11T22:42:27.109Z,23.70
2017-06-11T22:44:54.633Z,23.70
2017-06-11T22:47:22.163Z,23.80
2017-06-11T22:49:49.672Z,23.80
2017-06-11T22:52:17.931Z,23.70
2017-06-11T22:54:45.416Z,23.70
2017-06-11T22:57:13.029Z,23.70
2017-06-11T22:59:40.539Z,23.70
2017-06-11T23:02:08.053Z,23.70
2017-06-11T23:04:35.578Z,23.70
2017-06-11T23:07:03.082Z,23.60
2017-06-11T23:09:30.624Z,23.70
2017-06-11T23:11:58.263Z,23.70
2017-06-11T23:14:25.813Z,23.80
2017-06-11T23:16:53.412Z,23.60
2017-06-11T23:19:20.952Z,23.60
2017-06-11T23:21:48.450Z,23.60
2017-06-11T23:24:16.030Z,23.70
2017-06-11T23:26:43.577Z,23.80
2017-06-11T23:29:11.859Z,23.40
2017-06-11T23:31:40.129Z,23.50
2017-06-11T23:34:08.456Z,23.70
2017-06-11T23:36:35.961Z,23.60
2017-06-11T23:39:03.474Z,23.50
2017-06-11T23:41:30.999Z,23.30
2017-06-11T23:43:59.277Z,23.40
2017-06-11T23:46:27.534Z,23.60
2017-06-11T23:48:55.045Z,23.50
2017-06-11T23:51:23.355Z,23.60
2017-06-11T23:53:50.872Z,23.60
2017-06-11T23:56:18.378Z,23.60
2017-06-11T23:58:45.889Z,23.60
